Urb Los Dominicos, Puerto Rico
Current Conditions -  °F | °C
As of 5:56 AM on Thursday 23 Oct 2014 (Local Time) from TJSJ Reporting Station
Broken Clouds Broken Clouds  
Wind Chill: 77°   Ceiling: 5500
Heat Index: 78°   Visibility: 10mi
Dew Point: 73°   Wind: 5mph
Humidity: 88%   Direction: 70°ENE
Pressure: 29.92"   Gusts: NA
Location:  18.1783°N, 66.1111°W
Report Text: TJSJ 230956Z 07004KT 10SM SCT026 BKN055 BKN075 25/23 A2992 RMK AO2 SLP132 T02500228
Loading
Personal Weather Stations






























Interactive Weather Map
Tropical Storm Tracking
New forecast layout! Learn more

10-Day Weather Forecast

Advertisements
Track Severe Weather on mobile